sensor_id;sensor_type;location;lat;lon;timestamp;pressure;altitude;pressure_sealevel;temperature;humidity
38466;BME280;24244;51.950;5.902;2023-04-10T00:00:47;102062.28;;;9.99;65.07
38466;BME280;24244;51.950;5.902;2023-04-10T00:03:15;102052.94;;;9.95;65.10
38466;BME280;24244;51.950;5.902;2023-04-10T00:05:44;102056.44;;;9.96;64.89
38466;BME280;24244;51.950;5.902;2023-04-10T00:08:11;102058.44;;;9.94;65.38
38466;BME280;24244;51.950;5.902;2023-04-10T00:10:37;102062.91;;;9.93;65.29
38466;BME280;24244;51.950;5.902;2023-04-10T00:13:06;102064.72;;;9.93;65.15
38466;BME280;24244;51.950;5.902;2023-04-10T00:15:33;102064.72;;;9.93;64.72
38466;BME280;24244;51.950;5.902;2023-04-10T00:18:00;102059.41;;;9.93;64.93
38466;BME280;24244;51.950;5.902;2023-04-10T00:20:27;102053.41;;;9.91;65.15
38466;BME280;24244;51.950;5.902;2023-04-10T00:22:54;102053.41;;;9.91;65.18
38466;BME280;24244;51.950;5.902;2023-04-10T00:25:21;102030.47;;;9.90;65.31
38466;BME280;24244;51.950;5.902;2023-04-10T00:27:48;102027.97;;;9.88;65.21
38466;BME280;24244;51.950;5.902;2023-04-10T00:30:17;102022.00;;;9.86;65.30
38466;BME280;24244;51.950;5.902;2023-04-10T00:32:44;102012.34;;;9.85;65.30
38466;BME280;24244;51.950;5.902;2023-04-10T00:35:11;102012.34;;;9.85;65.22
38466;BME280;24244;51.950;5.902;2023-04-10T00:37:38;102021.44;;;9.82;65.24
38466;BME280;24244;51.950;5.902;2023-04-10T00:40:06;102018.09;;;9.80;65.32
38466;BME280;24244;51.950;5.902;2023-04-10T00:42:33;102004.28;;;9.77;65.31
38466;BME280;24244;51.950;5.902;2023-04-10T00:45:00;102007.94;;;9.76;65.41
38466;BME280;24244;51.950;5.902;2023-04-10T00:47:28;102001.78;;;9.75;65.41
38466;BME280;24244;51.950;5.902;2023-04-10T00:49:55;101995.78;;;9.73;65.25
38466;BME280;24244;51.950;5.902;2023-04-10T00:52:23;101989.66;;;9.73;65.25
38466;BME280;24244;51.950;5.902;2023-04-10T00:54:52;101988.81;;;9.72;65.76
38466;BME280;24244;51.950;5.902;2023-04-10T00:57:18;101984.50;;;9.71;65.52
38466;BME280;24244;51.950;5.902;2023-04-10T00:59:45;101980.88;;;9.72;65.65
38466;BME280;24244;51.950;5.902;2023-04-10T01:02:13;101970.38;;;9.71;65.80
38466;BME280;24244;51.950;5.902;2023-04-10T01:04:42;101968.72;;;9.70;65.56
38466;BME280;24244;51.950;5.902;2023-04-10T01:07:15;101967.03;;;9.69;65.93
38466;BME280;24244;51.950;5.902;2023-04-10T01:09:51;101971.66;;;9.67;65.74
38466;BME280;24244;51.950;5.902;2023-04-10T01:12:37;101976.13;;;9.66;66.05
38466;BME280;24244;51.950;5.902;2023-04-10T01:15:14;101983.28;;;9.66;65.82
38466;BME280;24244;51.950;5.902;2023-04-10T01:17:42;101980.09;;;9.62;66.09
38466;BME280;24244;51.950;5.902;2023-04-10T01:20:17;101969.75;;;9.59;66.11
38466;BME280;24244;51.950;5.902;2023-04-10T01:22:56;101970.06;;;9.56;65.85
38466;BME280;24244;51.950;5.902;2023-04-10T01:25:38;101971.88;;;9.56;65.84
38466;BME280;24244;51.950;5.902;2023-04-10T01:28:24;101975.66;;;9.53;66.20
38466;BME280;24244;51.950;5.902;2023-04-10T01:31:00;101974.00;;;9.52;65.80
38466;BME280;24244;51.950;5.902;2023-04-10T01:33:33;101972.16;;;9.53;66.22
38466;BME280;24244;51.950;5.902;2023-04-10T01:36:04;101965.22;;;9.52;66.02
38466;BME280;24244;51.950;5.902;2023-04-10T01:38:32;101972.34;;;9.51;66.24
38466;BME280;24244;51.950;5.902;2023-04-10T01:41:02;101967.03;;;9.51;66.28
38466;BME280;24244;51.950;5.902;2023-04-10T01:43:30;101972.34;;;9.51;65.93
38466;BME280;24244;51.950;5.902;2023-04-10T01:46:00;101962.00;;;9.48;66.12
38466;BME280;24244;51.950;5.902;2023-04-10T01:48:29;101963.97;;;9.46;66.27
38466;BME280;24244;51.950;5.902;2023-04-10T01:50:56;101964.94;;;9.45;66.38
38466;BME280;24244;51.950;5.902;2023-04-10T01:53:24;101963.31;;;9.44;66.11
38466;BME280;24244;51.950;5.902;2023-04-10T01:55:51;101962.63;;;9.42;66.44
38466;BME280;24244;51.950;5.902;2023-04-10T01:58:19;101957.44;;;9.40;66.39
38466;BME280;24244;51.950;5.902;2023-04-10T02:00:46;101953.97;;;9.40;66.28
38466;BME280;24244;51.950;5.902;2023-04-10T02:03:14;101947.97;;;9.38;66.38
38466;BME280;24244;51.950;5.902;2023-04-10T02:05:50;101956.09;;;9.36;66.39
38466;BME280;24244;51.950;5.902;2023-04-10T02:08:25;101948.28;;;9.35;66.62
38466;BME280;24244;51.950;5.902;2023-04-10T02:10:57;101950.09;;;9.34;66.30
38466;BME280;24244;51.950;5.902;2023-04-10T02:13:26;101953.72;;;9.33;66.44
38466;BME280;24244;51.950;5.902;2023-04-10T02:15:57;101949.25;;;9.34;66.56
38466;BME280;24244;51.950;5.902;2023-04-10T02:18:31;101950.94;;;9.35;66.40
38466;BME280;24244;51.950;5.902;2023-04-10T02:20:59;101944.78;;;9.34;66.44
38466;BME280;24244;51.950;5.902;2023-04-10T02:23:27;101946.59;;;9.34;66.33
38466;BME280;24244;51.950;5.902;2023-04-10T02:25:53;101939.63;;;9.33;66.43
38466;BME280;24244;51.950;5.902;2023-04-10T02:28:22;101938.63;;;9.34;66.67
38466;BME280;24244;51.950;5.902;2023-04-10T02:30:49;101939.75;;;9.31;66.62
38466;BME280;24244;51.950;5.902;2023-04-10T02:33:16;101934.63;;;9.30;66.56
38466;BME280;24244;51.950;5.902;2023-04-10T02:35:44;101925.84;;;9.29;66.89
38466;BME280;24244;51.950;5.902;2023-04-10T02:38:11;101934.78;;;9.28;66.94
38466;BME280;24244;51.950;5.902;2023-04-10T02:40:38;101926.81;;;9.28;66.61
38466;BME280;24244;51.950;5.902;2023-04-10T02:43:04;101921.66;;;9.27;66.74
38466;BME280;24244;51.950;5.902;2023-04-10T02:45:32;101929.75;;;9.25;66.66
38466;BME280;24244;51.950;5.902;2023-04-10T02:47:59;101920.97;;;9.25;66.66
38466;BME280;24244;51.950;5.902;2023-04-10T02:50:25;101924.75;;;9.22;66.67
38466;BME280;24244;51.950;5.902;2023-04-10T02:52:56;101924.75;;;9.22;66.80
38466;BME280;24244;51.950;5.902;2023-04-10T02:55:23;101919.75;;;9.19;66.68
38466;BME280;24244;51.950;5.902;2023-04-10T02:57:50;101921.41;;;9.20;66.75
38466;BME280;24244;51.950;5.902;2023-04-10T03:00:17;101915.41;;;9.18;66.92
38466;BME280;24244;51.950;5.902;2023-04-10T03:02:44;101919.03;;;9.17;66.87
38466;BME280;24244;51.950;5.902;2023-04-10T03:05:13;101912.91;;;9.17;66.67
38466;BME280;24244;51.950;5.902;2023-04-10T03:07:40;101919.88;;;9.18;66.73
38466;BME280;24244;51.950;5.902;2023-04-10T03:10:09;101917.41;;;9.16;66.73
38466;BME280;24244;51.950;5.902;2023-04-10T03:12:35;101920.84;;;9.17;66.75
38466;BME280;24244;51.950;5.902;2023-04-10T03:15:03;101913.75;;;9.17;66.83
38466;BME280;24244;51.950;5.902;2023-04-10T03:17:30;101920.06;;;9.16;66.73
38466;BME280;24244;51.950;5.902;2023-04-10T03:19:57;101918.53;;;9.14;66.64
38466;BME280;24244;51.950;5.902;2023-04-10T03:22:24;101928.16;;;9.15;67.07
38466;BME280;24244;51.950;5.902;2023-04-10T03:24:50;101922.16;;;9.13;66.80
38466;BME280;24244;51.950;5.902;2023-04-10T03:27:19;101921.47;;;9.11;66.61
38466;BME280;24244;51.950;5.902;2023-04-10T03:29:46;101918.28;;;9.07;66.94
38466;BME280;24244;51.950;5.902;2023-04-10T03:32:13;101920.38;;;9.03;67.12
38466;BME280;24244;51.950;5.902;2023-04-10T03:34:39;101918.69;;;9.02;66.93
38466;BME280;24244;51.950;5.902;2023-04-10T03:37:06;101916.22;;;9.01;66.92
38466;BME280;24244;51.950;5.902;2023-04-10T03:39:33;101918.03;;;9.00;67.04
38466;BME280;24244;51.950;5.902;2023-04-10T03:42:00;101919.00;;;8.99;67.22
38466;BME280;24244;51.950;5.902;2023-04-10T03:44:28;101908.69;;;8.96;67.01
38466;BME280;24244;51.950;5.902;2023-04-10T03:46:55;101912.31;;;8.95;66.85
38466;BME280;24244;51.950;5.902;2023-04-10T03:49:22;101913.59;;;8.91;67.31
38466;BME280;24244;51.950;5.902;2023-04-10T03:51:49;101907.59;;;8.89;67.05
38466;BME280;24244;51.950;5.902;2023-04-10T03:54:16;101904.28;;;8.87;67.00
38466;BME280;24244;51.950;5.902;2023-04-10T03:56:42;101898.28;;;8.85;67.36
38466;BME280;24244;51.950;5.902;2023-04-10T03:59:09;101894.25;;;8.81;67.50
38466;BME280;24244;51.950;5.902;2023-04-10T04:01:37;101892.75;;;8.79;67.26
38466;BME280;24244;51.950;5.902;2023-04-10T04:04:05;101894.84;;;8.75;67.41
38466;BME280;24244;51.950;5.902;2023-04-10T04:06:32;101894.00;;;8.75;67.61
38466;BME280;24244;51.950;5.902;2023-04-10T04:08:59;101881.91;;;8.72;67.40
38466;BME280;24244;51.950;5.902;2023-04-10T04:11:25;101884.00;;;8.69;67.39
38466;BME280;24244;51.950;5.902;2023-04-10T04:13:53;101892.09;;;8.67;67.49
38466;BME280;24244;51.950;5.902;2023-04-10T04:16:20;101882.63;;;8.64;67.42
38466;BME280;24244;51.950;5.902;2023-04-10T04:18:48;101875.94;;;8.60;67.46
38466;BME280;24244;51.950;5.902;2023-04-10T04:21:15;101878.75;;;8.59;67.60
38466;BME280;24244;51.950;5.902;2023-04-10T04:23:42;101876.38;;;8.56;67.67
38466;BME280;24244;51.950;5.902;2023-04-10T04:26:08;101875.69;;;8.54;67.81
38466;BME280;24244;51.950;5.902;2023-04-10T04:28:35;101875.00;;;8.52;67.46
38466;BME280;24244;51.950;5.902;2023-04-10T04:31:02;101873.34;;;8.51;67.90
38466;BME280;24244;51.950;5.902;2023-04-10T04:33:29;101875.44;;;8.47;67.79
38466;BME280;24244;51.950;5.902;2023-04-10T04:35:57;101867.78;;;8.44;67.82
38466;BME280;24244;51.950;5.902;2023-04-10T04:38:24;101866.25;;;8.42;67.65
38466;BME280;24244;51.950;5.902;2023-04-10T04:40:51;101866.53;;;8.39;67.92
38466;BME280;24244;51.950;5.902;2023-04-10T04:43:18;101872.84;;;8.38;67.82
38466;BME280;24244;51.950;5.902;2023-04-10T04:45:44;101874.91;;;8.34;67.86
38466;BME280;24244;51.950;5.902;2023-04-10T04:48:11;101869.94;;;8.31;67.71
38466;BME280;24244;51.950;5.902;2023-04-10T04:50:39;101866.56;;;8.29;67.91
38466;BME280;24244;51.950;5.902;2023-04-10T04:53:08;101874.91;;;8.24;67.87
38466;BME280;24244;51.950;5.902;2023-04-10T04:55:35;101870.75;;;8.22;68.00
38466;BME280;24244;51.950;5.902;2023-04-10T04:58:02;101868.25;;;8.20;68.00
38466;BME280;24244;51.950;5.902;2023-04-10T05:00:28;101866.88;;;8.16;68.23
38466;BME280;24244;51.950;5.902;2023-04-10T05:02:55;101864.34;;;8.15;68.18
38466;BME280;24244;51.950;5.902;2023-04-10T05:05:22;101860.16;;;8.12;68.13
38466;BME280;24244;51.950;5.902;2023-04-10T05:07:49;101863.66;;;8.13;68.51
38466;BME280;24244;51.950;5.902;2023-04-10T05:10:17;101857.53;;;8.12;68.70
38466;BME280;24244;51.950;5.902;2023-04-10T05:12:44;101851.25;;;8.13;68.48
38466;BME280;24244;51.950;5.902;2023-04-10T05:15:11;101840.66;;;8.13;68.42
38466;BME280;24244;51.950;5.902;2023-04-10T05:17:38;101842.34;;;8.14;68.24
38466;BME280;24244;51.950;5.902;2023-04-10T05:20:06;101850.13;;;8.16;68.50
38466;BME280;24244;51.950;5.902;2023-04-10T05:22:33;101857.91;;;8.17;68.35
38466;BME280;24244;51.950;5.902;2023-04-10T05:25:00;101846.34;;;8.18;68.56
38466;BME280;24244;51.950;5.902;2023-04-10T05:27:29;101836.47;;;8.20;68.25
38466;BME280;24244;51.950;5.902;2023-04-10T05:29:55;101839.94;;;8.21;68.25
38466;BME280;24244;51.950;5.902;2023-04-10T05:32:22;101853.72;;;8.24;68.31
38466;BME280;24244;51.950;5.902;2023-04-10T05:34:49;101843.13;;;8.24;68.45
38466;BME280;24244;51.950;5.902;2023-04-10T05:37:16;101841.16;;;8.26;68.53
38466;BME280;24244;51.950;5.902;2023-04-10T05:39:43;101844.53;;;8.29;68.40
38466;BME280;24244;51.950;5.902;2023-04-10T05:42:10;101843.53;;;8.30;68.29
38466;BME280;24244;51.950;5.902;2023-04-10T05:44:38;101843.28;;;8.33;68.38
38466;BME280;24244;51.950;5.902;2023-04-10T05:47:06;101842.28;;;8.34;68.24
38466;BME280;24244;51.950;5.902;2023-04-10T05:49:33;101840.22;;;8.37;68.39
38466;BME280;24244;51.950;5.902;2023-04-10T05:52:00;101849.81;;;8.38;68.54
38466;BME280;24244;51.950;5.902;2023-04-10T05:54:27;101844.34;;;8.40;68.18
38466;BME280;24244;51.950;5.902;2023-04-10T05:56:53;101850.34;;;8.42;68.20
38466;BME280;24244;51.950;5.902;2023-04-10T05:59:20;101841.44;;;8.43;68.33
38466;BME280;24244;51.950;5.902;2023-04-10T06:01:48;101835.81;;;8.46;68.14
38466;BME280;24244;51.950;5.902;2023-04-10T06:04:15;101836.38;;;8.49;68.56
38466;BME280;24244;51.950;5.902;2023-04-10T06:06:42;101829.97;;;8.52;68.17
38466;BME280;24244;51.950;5.902;2023-04-10T06:09:09;101833.28;;;8.54;68.39
38466;BME280;24244;51.950;5.902;2023-04-10T06:11:36;101830.34;;;8.57;68.09
38466;BME280;24244;51.950;5.902;2023-04-10T06:14:03;101827.38;;;8.60;68.51
38466;BME280;24244;51.950;5.902;2023-04-10T06:16:30;101828.78;;;8.64;68.06
38466;BME280;24244;51.950;5.902;2023-04-10T06:18:59;101825.81;;;8.67;68.20
38466;BME280;24244;51.950;5.902;2023-04-10T06:21:25;101822.88;;;8.70;68.19
38466;BME280;24244;51.950;5.902;2023-04-10T06:23:52;101817.00;;;8.76;67.78
38466;BME280;24244;51.950;5.902;2023-04-10T06:26:20;101814.88;;;8.80;67.98
38466;BME280;24244;51.950;5.902;2023-04-10T06:28:46;101804.66;;;8.85;67.66
38466;BME280;24244;51.950;5.902;2023-04-10T06:31:13;101801.56;;;8.89;67.75
38466;BME280;24244;51.950;5.902;2023-04-10T06:33:40;101804.63;;;8.94;67.77
38466;BME280;24244;51.950;5.902;2023-04-10T06:36:08;101807.78;;;8.98;67.74
38466;BME280;24244;51.950;5.902;2023-04-10T06:38:36;101802.03;;;9.02;67.59
38466;BME280;24244;51.950;5.902;2023-04-10T06:41:04;101804.25;;;9.07;67.63
38466;BME280;24244;51.950;5.902;2023-04-10T06:43:32;101792.19;;;9.13;67.42
38466;BME280;24244;51.950;5.902;2023-04-10T06:45:59;101794.38;;;9.17;67.58
38466;BME280;24244;51.950;5.902;2023-04-10T06:48:27;101791.94;;;9.24;67.51
38466;BME280;24244;51.950;5.902;2023-04-10T06:50:54;101785.22;;;9.29;67.60
38466;BME280;24244;51.950;5.902;2023-04-10T06:53:22;101786.28;;;9.36;67.46
38466;BME280;24244;51.950;5.902;2023-04-10T06:55:49;101787.47;;;9.42;67.25
38466;BME280;24244;51.950;5.902;2023-04-10T06:58:16;101786.84;;;9.48;67.34
38466;BME280;24244;51.950;5.902;2023-04-10T07:00:43;101771.28;;;9.53;67.15
38466;BME280;24244;51.950;5.902;2023-04-10T07:03:10;101776.66;;;9.61;67.01
38466;BME280;24244;51.950;5.902;2023-04-10T07:05:37;101762.13;;;9.65;67.12
38466;BME280;24244;51.950;5.902;2023-04-10T07:08:07;101761.47;;;9.71;67.17
38466;BME280;24244;51.950;5.902;2023-04-10T07:10:35;101756.38;;;9.78;66.75
38466;BME280;24244;51.950;5.902;2023-04-10T07:13:03;101747.63;;;9.86;66.99
38466;BME280;24244;51.950;5.902;2023-04-10T07:15:29;101750.50;;;9.92;66.72
38466;BME280;24244;51.950;5.902;2023-04-10T07:17:56;101738.41;;;9.98;66.78
38466;BME280;24244;51.950;5.902;2023-04-10T07:20:23;101734.13;;;10.05;66.50
38466;BME280;24244;51.950;5.902;2023-04-10T07:22:50;101729.00;;;10.11;66.63
38466;BME280;24244;51.950;5.902;2023-04-10T07:25:17;101720.41;;;10.17;66.31
38466;BME280;24244;51.950;5.902;2023-04-10T07:27:45;101713.47;;;10.25;66.37
38466;BME280;24244;51.950;5.902;2023-04-10T07:30:18;101717.16;;;10.32;66.19
38466;BME280;24244;51.950;5.902;2023-04-10T07:32:45;101705.06;;;10.37;66.00
38466;BME280;24244;51.950;5.902;2023-04-10T07:35:12;101700.75;;;10.44;65.79
38466;BME280;24244;51.950;5.902;2023-04-10T07:37:39;101702.09;;;10.48;65.93
38466;BME280;24244;51.950;5.902;2023-04-10T07:40:08;101693.47;;;10.54;65.59
38466;BME280;24244;51.950;5.902;2023-04-10T07:42:35;101692.81;;;10.60;65.10
38466;BME280;24244;51.950;5.902;2023-04-10T07:45:04;101687.84;;;10.66;65.35
38466;BME280;24244;51.950;5.902;2023-04-10T07:47:31;101685.53;;;10.71;65.23
38466;BME280;24244;51.950;5.902;2023-04-10T07:49:58;101685.69;;;10.77;65.00
38466;BME280;24244;51.950;5.902;2023-04-10T07:52:25;101679.88;;;10.82;64.95
38466;BME280;24244;51.950;5.902;2023-04-10T07:54:52;101665.91;;;10.88;64.63
38466;BME280;24244;51.950;5.902;2023-04-10T07:57:18;101669.75;;;10.93;64.49
38466;BME280;24244;51.950;5.902;2023-04-10T07:59:45;101673.72;;;10.97;64.50
38466;BME280;24244;51.950;5.902;2023-04-10T08:02:13;101672.38;;;11.02;64.46
38466;BME280;24244;51.950;5.902;2023-04-10T08:04:40;101658.75;;;11.05;64.37
38466;BME280;24244;51.950;5.902;2023-04-10T08:07:08;101664.41;;;11.10;64.40
38466;BME280;24244;51.950;5.902;2023-04-10T08:09:35;101659.59;;;11.13;64.25
38466;BME280;24244;51.950;5.902;2023-04-10T08:12:02;101664.25;;;11.19;64.34
38466;BME280;24244;51.950;5.902;2023-04-10T08:14:29;101657.41;;;11.25;64.58
38466;BME280;24244;51.950;5.902;2023-04-10T08:16:55;101647.75;;;11.32;64.10
38466;BME280;24244;51.950;5.902;2023-04-10T08:19:24;101642.56;;;11.38;64.14
38466;BME280;24244;51.950;5.902;2023-04-10T08:21:51;101645.38;;;11.45;63.64
38466;BME280;24244;51.950;5.902;2023-04-10T08:24:18;101635.91;;;11.51;63.79
38466;BME280;24244;51.950;5.902;2023-04-10T08:26:47;101637.22;;;11.55;63.56
38466;BME280;24244;51.950;5.902;2023-04-10T08:29:14;101641.69;;;11.62;63.78
38466;BME280;24244;51.950;5.902;2023-04-10T08:31:41;101644.50;;;11.69;63.25
38466;BME280;24244;51.950;5.902;2023-04-10T08:34:07;101643.66;;;11.76;62.87
38466;BME280;24244;51.950;5.902;2023-04-10T08:36:35;101645.63;;;11.83;62.74
38466;BME280;24244;51.950;5.902;2023-04-10T08:39:02;101627.28;;;11.88;62.58
38466;BME280;24244;51.950;5.902;2023-04-10T08:41:29;101637.25;;;11.94;62.21
38466;BME280;24244;51.950;5.902;2023-04-10T08:43:56;101642.09;;;11.98;61.71
38466;BME280;24244;51.950;5.902;2023-04-10T08:46:23;101637.06;;;12.03;61.65
38466;BME280;24244;51.950;5.902;2023-04-10T08:48:54;101639.00;;;12.09;61.59
38466;BME280;24244;51.950;5.902;2023-04-10T08:51:27;101639.97;;;12.16;61.67
38466;BME280;24244;51.950;5.902;2023-04-10T08:54:05;101632.09;;;12.23;61.29
38466;BME280;24244;51.950;5.902;2023-04-10T08:56:34;101630.59;;;12.29;61.67
38466;BME280;24244;51.950;5.902;2023-04-10T08:59:03;101620.06;;;12.35;61.42
38466;BME280;24244;51.950;5.902;2023-04-10T09:01:30;101623.47;;;12.44;60.87
38466;BME280;24244;51.950;5.902;2023-04-10T09:03:57;101619.91;;;12.51;60.87
38466;BME280;24244;51.950;5.902;2023-04-10T09:06:25;101621.72;;;12.59;60.72
38466;BME280;24244;51.950;5.902;2023-04-10T09:08:52;101621.66;;;12.67;60.58
38466;BME280;24244;51.950;5.902;2023-04-10T09:11:21;101614.59;;;12.74;60.24
38466;BME280;24244;51.950;5.902;2023-04-10T09:13:53;101613.03;;;12.80;60.70
38466;BME280;24244;51.950;5.902;2023-04-10T09:16:27;101611.50;;;12.85;60.31
38466;BME280;24244;51.950;5.902;2023-04-10T09:18:55;101612.78;;;12.89;60.44
38466;BME280;24244;51.950;5.902;2023-04-10T09:21:22;101607.91;;;12.93;59.86
38466;BME280;24244;51.950;5.902;2023-04-10T09:23:58;101600.38;;;12.97;59.80
38466;BME280;24244;51.950;5.902;2023-04-10T09:26:28;101596.53;;;12.99;59.78
38466;BME280;24244;51.950;5.902;2023-04-10T09:28:57;101597.47;;;13.06;60.11
38466;BME280;24244;51.950;5.902;2023-04-10T09:31:32;101597.75;;;13.11;59.97
38466;BME280;24244;51.950;5.902;2023-04-10T09:34:11;101588.03;;;13.18;59.97
38466;BME280;24244;51.950;5.902;2023-04-10T09:36:41;101582.78;;;13.25;59.95
38466;BME280;24244;51.950;5.902;2023-04-10T09:39:10;101574.88;;;13.31;59.39
38466;BME280;24244;51.950;5.902;2023-04-10T09:41:50;101569.59;;;13.38;59.21
38466;BME280;24244;51.950;5.902;2023-04-10T09:44:27;101551.19;;;13.43;59.14
38466;BME280;24244;51.950;5.902;2023-04-10T09:46:54;101553.97;;;13.50;58.92
38466;BME280;24244;51.950;5.902;2023-04-10T09:49:21;101549.91;;;13.54;58.92
38466;BME280;24244;51.950;5.902;2023-04-10T09:51:49;101536.38;;;13.55;58.39
38466;BME280;24244;51.950;5.902;2023-04-10T09:54:15;101534.13;;;13.59;58.61
38466;BME280;24244;51.950;5.902;2023-04-10T09:56:44;101531.28;;;13.60;58.41
38466;BME280;24244;51.950;5.902;2023-04-10T09:59:13;101535.03;;;13.66;58.62
38466;BME280;24244;51.950;5.902;2023-04-10T10:01:40;101523.16;;;13.68;58.55
38466;BME280;24244;51.950;5.902;2023-04-10T10:04:08;101511.28;;;13.71;58.35
38466;BME280;24244;51.950;5.902;2023-04-10T10:06:37;101510.88;;;13.74;58.46
38466;BME280;24244;51.950;5.902;2023-04-10T10:09:04;101495.31;;;13.78;58.40
38466;BME280;24244;51.950;5.902;2023-04-10T10:11:33;101496.75;;;13.80;58.00
38466;BME280;24244;51.950;5.902;2023-04-10T10:14:02;101488.38;;;13.83;58.03
38466;BME280;24244;51.950;5.902;2023-04-10T10:16:38;101483.47;;;13.87;58.12
38466;BME280;24244;51.950;5.902;2023-04-10T10:19:08;101491.13;;;13.90;58.24
38466;BME280;24244;51.950;5.902;2023-04-10T10:21:37;101475.34;;;13.95;58.26
38466;BME280;24244;51.950;5.902;2023-04-10T10:24:07;101479.28;;;13.99;57.63
38466;BME280;24244;51.950;5.902;2023-04-10T10:26:35;101483.22;;;14.03;58.10
38466;BME280;24244;51.950;5.902;2023-04-10T10:29:05;101481.63;;;14.08;58.35
38466;BME280;24244;51.950;5.902;2023-04-10T10:31:32;101480.25;;;14.13;58.38
38466;BME280;24244;51.950;5.902;2023-04-10T10:34:04;101474.50;;;14.16;57.78
38466;BME280;24244;51.950;5.902;2023-04-10T10:36:33;101468.59;;;14.20;57.82
38466;BME280;24244;51.950;5.902;2023-04-10T10:39:12;101455.00;;;14.22;57.67
38466;BME280;24244;51.950;5.902;2023-04-10T10:41:57;101451.78;;;14.26;57.62
38466;BME280;24244;51.950;5.902;2023-04-10T10:44:31;101443.16;;;14.31;57.24
38466;BME280;24244;51.950;5.902;2023-04-10T10:47:06;101438.88;;;14.36;57.49
38466;BME280;24244;51.950;5.902;2023-04-10T10:49:59;101430.50;;;14.39;57.17
38466;BME280;24244;51.950;5.902;2023-04-10T10:52:36;101430.75;;;14.44;57.24
38466;BME280;24244;51.950;5.902;2023-04-10T10:55:31;101420.91;;;14.52;57.39
38466;BME280;24244;51.950;5.902;2023-04-10T10:58:07;101413.94;;;14.57;57.50
38466;BME280;24244;51.950;5.902;2023-04-10T11:01:06;101413.38;;;14.62;57.16
38466;BME280;24244;51.950;5.902;2023-04-10T11:03:36;101417.09;;;14.67;57.12
38466;BME280;24244;51.950;5.902;2023-04-10T11:06:10;101408.09;;;14.75;57.42
38466;BME280;24244;51.950;5.902;2023-04-10T11:08:44;101408.31;;;14.80;57.41
38466;BME280;24244;51.950;5.902;2023-04-10T11:11:14;101404.84;;;14.86;57.07
38466;BME280;24244;51.950;5.902;2023-04-10T11:14:11;101395.00;;;14.93;57.22
38466;BME280;24244;51.950;5.902;2023-04-10T11:16:43;101390.91;;;14.97;57.00
38466;BME280;24244;51.950;5.902;2023-04-10T11:19:17;101390.53;;;15.07;56.99
38466;BME280;24244;51.950;5.902;2023-04-10T11:22:08;101376.97;;;15.15;56.82
38466;BME280;24244;51.950;5.902;2023-04-10T11:24:54;101382.97;;;15.23;57.01
38466;BME280;24244;51.950;5.902;2023-04-10T11:27:53;101374.75;;;15.32;56.46
38466;BME280;24244;51.950;5.902;2023-04-10T11:30:31;101365.91;;;15.38;56.83
38466;BME280;24244;51.950;5.902;2023-04-10T11:33:00;101350.66;;;15.45;56.70
38466;BME280;24244;51.950;5.902;2023-04-10T11:35:29;101354.84;;;15.54;56.54
38466;BME280;24244;51.950;5.902;2023-04-10T11:38:13;101335.91;;;15.62;55.56
38466;BME280;24244;51.950;5.902;2023-04-10T11:40:59;101332.38;;;15.68;55.36
38466;BME280;24244;51.950;5.902;2023-04-10T11:43:27;101329.50;;;15.76;55.18
38466;BME280;24244;51.950;5.902;2023-04-10T11:46:02;101322.28;;;15.83;55.25
38466;BME280;24244;51.950;5.902;2023-04-10T11:48:29;101330.53;;;15.88;55.35
38466;BME280;24244;51.950;5.902;2023-04-10T11:50:57;101314.63;;;15.93;54.95
38466;BME280;24244;51.950;5.902;2023-04-10T11:53:26;101314.63;;;16.00;54.75
38466;BME280;24244;51.950;5.902;2023-04-10T11:55:55;101321.03;;;16.05;54.57
38466;BME280;24244;51.950;5.902;2023-04-10T11:58:24;101317.72;;;16.10;54.52
38466;BME280;24244;51.950;5.902;2023-04-10T12:00:59;101310.06;;;16.14;54.40
38466;BME280;24244;51.950;5.902;2023-04-10T12:03:34;101315.03;;;16.17;54.23
38466;BME280;24244;51.950;5.902;2023-04-10T12:06:02;101309.03;;;16.21;54.52
38466;BME280;24244;51.950;5.902;2023-04-10T12:08:31;101297.88;;;16.24;54.29
38466;BME280;24244;51.950;5.902;2023-04-10T12:10:58;101299.94;;;16.29;54.23
38466;BME280;24244;51.950;5.902;2023-04-10T12:13:26;101293.13;;;16.33;54.50
38466;BME280;24244;51.950;5.902;2023-04-10T12:15:57;101288.97;;;16.37;54.78
38466;BME280;24244;51.950;5.902;2023-04-10T12:18:24;101291.00;;;16.41;54.72
38466;BME280;24244;51.950;5.902;2023-04-10T12:20:55;101281.31;;;16.47;54.41
38466;BME280;24244;51.950;5.902;2023-04-10T12:23:23;101277.97;;;16.52;54.68
38466;BME280;24244;51.950;5.902;2023-04-10T12:25:55;101273.03;;;16.55;54.17
38466;BME280;24244;51.950;5.902;2023-04-10T12:28:31;101268.69;;;16.61;54.28
38466;BME280;24244;51.950;5.902;2023-04-10T12:30:58;101269.91;;;16.65;54.29
38466;BME280;24244;51.950;5.902;2023-04-10T12:33:25;101260.41;;;16.69;54.21
38466;BME280;24244;51.950;5.902;2023-04-10T12:35:52;101260.16;;;16.70;53.85
38466;BME280;24244;51.950;5.902;2023-04-10T12:38:37;101252.72;;;16.72;52.88
38466;BME280;24244;51.950;5.902;2023-04-10T12:41:07;101250.66;;;16.74;53.06
38466;BME280;24244;51.950;5.902;2023-04-10T12:43:36;101248.34;;;16.78;53.09
38466;BME280;24244;51.950;5.902;2023-04-10T12:46:04;101244.22;;;16.82;52.72
38466;BME280;24244;51.950;5.902;2023-04-10T12:48:32;101231.16;;;16.86;52.88
38466;BME280;24244;51.950;5.902;2023-04-10T12:50:59;101235.91;;;16.90;52.17
38466;BME280;24244;51.950;5.902;2023-04-10T12:53:26;101239.81;;;16.94;52.42
38466;BME280;24244;51.950;5.902;2023-04-10T12:55:58;101229.88;;;16.95;52.23
38466;BME280;24244;51.950;5.902;2023-04-10T12:58:27;101219.75;;;16.97;52.39
38466;BME280;24244;51.950;5.902;2023-04-10T13:00:58;101215.41;;;16.96;52.22
38466;BME280;24244;51.950;5.902;2023-04-10T13:03:27;101209.22;;;16.95;52.23
38466;BME280;24244;51.950;5.902;2023-04-10T13:05:54;101198.69;;;16.94;51.79